createdAt,value
2018-10-21T00:00:18.501Z,6.40
2018-10-21T00:02:47.888Z,6.00
2018-10-21T00:05:17.696Z,6.10
2018-10-21T00:07:46.984Z,6.00
2018-10-21T00:10:16.581Z,5.90
2018-10-21T00:12:45.898Z,5.90
2018-10-21T00:15:15.446Z,6.30
2018-10-21T00:17:44.890Z,6.40
2018-10-21T00:20:14.288Z,6.20
2018-10-21T00:22:43.444Z,6.00
2018-10-21T00:25:12.981Z,6.30
2018-10-21T00:27:42.316Z,6.20
2018-10-21T00:30:12.014Z,6.10
2018-10-21T00:35:34.443Z,6.00
2018-10-21T00:38:03.983Z,6.10
2018-10-21T00:40:33.279Z,6.00
2018-10-21T00:43:02.582Z,5.90
2018-10-21T00:45:31.802Z,6.00
2018-10-21T00:48:00.956Z,5.80
2018-10-21T00:50:30.177Z,5.80
2018-10-21T00:52:59.759Z,6.00
2018-10-21T00:55:29.279Z,6.10
2018-10-21T00:57:58.497Z,6.30
2018-10-21T01:00:27.843Z,6.10
2018-10-21T01:02:57.119Z,5.90
2018-10-21T01:05:26.333Z,5.70
2018-10-21T01:10:47.045Z,5.50
2018-10-21T01:13:16.379Z,5.40
2018-10-21T01:15:45.478Z,5.50
2018-10-21T01:18:14.876Z,5.40
2018-10-21T01:20:44.399Z,5.50
2018-10-21T01:23:14.047Z,5.80
2018-10-21T01:25:44.102Z,5.60
2018-10-21T01:28:13.728Z,5.30
2018-10-21T01:30:42.908Z,5.40
2018-10-21T01:36:05.320Z,5.80
2018-10-21T01:38:34.788Z,6.00
2018-10-21T01:41:04.555Z,5.90
2018-10-21T01:43:34.548Z,5.70
2018-10-21T01:46:04.243Z,5.70
2018-10-21T01:48:33.950Z,5.80
2018-10-21T01:51:03.301Z,5.80
2018-10-21T01:53:32.832Z,5.70
2018-10-21T01:56:02.264Z,5.60
2018-10-21T01:58:31.666Z,5.80
2018-10-21T02:01:01.217Z,5.70
2018-10-21T02:03:30.840Z,5.60
2018-10-21T02:06:00.151Z,5.60
2018-10-21T02:08:30.164Z,5.90
2018-10-21T02:10:59.502Z,5.90
2018-10-21T02:13:28.558Z,5.70
2018-10-21T02:15:57.998Z,5.70
2018-10-21T02:18:27.630Z,5.70
2018-10-21T02:20:57.299Z,5.70
2018-10-21T02:23:26.985Z,5.70
2018-10-21T02:25:56.434Z,5.50
2018-10-21T02:28:26.152Z,5.10
2018-10-21T02:30:54.937Z,5.10
2018-10-21T02:33:24.121Z,5.30
2018-10-21T02:35:53.381Z,5.30
2018-10-21T02:38:22.555Z,5.10
2018-10-21T02:41:44.460Z,5.30
2018-10-21T02:44:15.344Z,5.60
2018-10-21T02:46:45.356Z,5.50
2018-10-21T02:49:15.396Z,5.30
2018-10-21T02:51:49.184Z,5.30
2018-10-21T02:54:22.679Z,5.20
2018-10-21T02:56:52.335Z,5.30
2018-10-21T02:59:22.360Z,5.40
2018-10-21T03:01:51.877Z,5.30
2018-10-21T03:04:21.719Z,5.40
2018-10-21T03:06:51.509Z,5.50
2018-10-21T03:09:20.877Z,5.40
2018-10-21T03:11:50.578Z,5.00
2018-10-21T03:14:20.492Z,4.80
2018-10-21T03:16:49.892Z,5.00
2018-10-21T03:19:18.697Z,5.00
2018-10-21T03:21:47.610Z,4.90
2018-10-21T03:24:17.010Z,4.90
2018-10-21T03:26:47.092Z,5.10
2018-10-21T03:29:17.040Z,5.30
2018-10-21T03:31:46.407Z,5.60
2018-10-21T03:34:15.687Z,5.40
2018-10-21T03:36:44.973Z,5.30
2018-10-21T03:39:14.254Z,5.10
2018-10-21T03:41:43.644Z,4.90
2018-10-21T03:44:12.932Z,4.70
2018-10-21T03:46:42.334Z,4.80
2018-10-21T03:49:11.733Z,4.80
2018-10-21T03:51:41.251Z,4.60
2018-10-21T03:54:10.503Z,4.60
2018-10-21T03:56:39.943Z,4.90
2018-10-21T03:59:09.460Z,5.10
2018-10-21T04:01:39.083Z,5.30
2018-10-21T04:04:08.752Z,5.40
2018-10-21T04:06:38.405Z,5.10
2018-10-21T04:09:08.384Z,5.10
2018-10-21T04:11:38.029Z,5.00
2018-10-21T04:14:07.638Z,4.90
2018-10-21T04:16:37.441Z,4.80
2018-10-21T04:19:07.048Z,4.90
2018-10-21T04:21:36.565Z,4.90
2018-10-21T04:24:06.158Z,5.00
2018-10-21T04:26:43.366Z,5.00
2018-10-21T04:29:19.160Z,4.90
2018-10-21T04:34:41.854Z,5.10
2018-10-21T04:37:22.152Z,5.30
2018-10-21T04:40:07.067Z,5.30
2018-10-21T04:42:36.581Z,5.20
2018-10-21T04:45:06.438Z,5.30
2018-10-21T04:47:35.954Z,5.30
2018-10-21T04:50:05.649Z,5.40
2018-10-21T04:52:34.988Z,5.40
2018-10-21T04:55:07.764Z,5.20
2018-10-21T04:57:38.601Z,5.00
2018-10-21T05:00:10.757Z,5.00
2018-10-21T05:02:40.093Z,5.10
2018-10-21T05:05:10.631Z,5.40
2018-10-21T05:07:40.632Z,5.50
2018-10-21T05:10:17.802Z,5.40
2018-10-21T05:12:47.361Z,5.50
2018-10-21T05:15:17.156Z,5.50
2018-10-21T05:17:46.473Z,5.60
2018-10-21T05:20:15.973Z,5.30
2018-10-21T05:22:45.367Z,5.40
2018-10-21T05:25:14.824Z,5.30
2018-10-21T05:27:44.382Z,5.20
2018-10-21T05:30:14.117Z,5.10
2018-10-21T05:32:43.772Z,4.90
2018-10-21T05:35:14.709Z,4.80
2018-10-21T05:37:43.790Z,4.80
2018-10-21T05:40:14.408Z,5.20
2018-10-21T05:42:44.400Z,5.10
2018-10-21T05:45:14.467Z,4.80
2018-10-21T05:47:44.461Z,4.80
2018-10-21T05:50:15.501Z,4.50
2018-10-21T05:52:45.824Z,4.70
2018-10-21T05:55:16.458Z,4.80
2018-10-21T05:57:45.596Z,4.80
2018-10-21T06:00:19.154Z,4.70
2018-10-21T06:02:48.223Z,4.80
2018-10-21T06:05:35.095Z,4.50
2018-10-21T06:08:04.530Z,4.40
2018-10-21T06:10:34.134Z,4.40
2018-10-21T06:13:03.415Z,4.40
2018-10-21T06:15:32.571Z,4.60
2018-10-21T06:18:02.694Z,4.70
2018-10-21T06:20:40.391Z,4.60
2018-10-21T06:23:10.020Z,4.50
2018-10-21T06:25:39.693Z,4.50
2018-10-21T06:28:09.427Z,4.50
2018-10-21T06:30:39.061Z,4.70
2018-10-21T06:33:08.842Z,5.00
2018-10-21T06:35:38.455Z,4.80
2018-10-21T06:38:08.221Z,4.50
2018-10-21T06:40:37.848Z,4.60
2018-10-21T06:43:07.505Z,4.80
2018-10-21T06:45:37.405Z,4.70
2018-10-21T06:48:07.176Z,4.60
2018-10-21T06:50:36.788Z,4.50
2018-10-21T06:53:06.600Z,4.60
2018-10-21T06:55:36.293Z,4.80
2018-10-21T06:58:06.056Z,4.90
2018-10-21T07:00:35.357Z,5.00
2018-10-21T07:03:04.967Z,5.10
2018-10-21T07:06:17.085Z,5.20
2018-10-21T07:08:47.081Z,5.20
2018-10-21T07:11:16.961Z,5.30
2018-10-21T07:13:46.370Z,5.30
2018-10-21T07:16:16.201Z,5.40
2018-10-21T07:18:46.365Z,5.50
2018-10-21T07:21:15.999Z,5.40
2018-10-21T07:23:45.409Z,5.60
2018-10-21T07:26:15.113Z,6.10
2018-10-21T07:28:44.329Z,6.90
2018-10-21T07:31:17.219Z,7.50
2018-10-21T07:33:47.101Z,8.10
2018-10-21T07:36:23.077Z,8.70
2018-10-21T07:38:52.239Z,9.10
2018-10-21T07:41:21.396Z,9.50
2018-10-21T07:43:50.930Z,10.00
2018-10-21T07:46:20.317Z,10.70
2018-10-21T07:48:50.099Z,11.10
2018-10-21T07:51:19.595Z,11.80
2018-10-21T07:53:48.944Z,12.00
2018-10-21T07:56:18.278Z,12.20
2018-10-21T07:58:47.555Z,12.40
2018-10-21T08:01:16.781Z,12.80
2018-10-21T08:03:46.112Z,13.20
2018-10-21T08:06:32.744Z,13.40
2018-10-21T08:09:08.674Z,13.40
2018-10-21T08:11:38.077Z,13.80
2018-10-21T08:14:07.119Z,14.00
2018-10-21T08:16:36.087Z,14.20
2018-10-21T08:19:05.309Z,14.40
2018-10-21T08:21:34.681Z,14.40
2018-10-21T08:24:07.229Z,14.60
2018-10-21T08:26:36.390Z,15.20
2018-10-21T08:29:05.551Z,15.50
2018-10-21T08:31:35.786Z,15.70
2018-10-21T08:34:05.500Z,15.70
2018-10-21T08:36:34.706Z,15.90
2018-10-21T08:39:08.062Z,16.00
2018-10-21T08:41:37.586Z,16.40
2018-10-21T08:44:06.748Z,16.80
2018-10-21T08:46:35.922Z,16.90
2018-10-21T08:49:05.210Z,17.20
2018-10-21T08:51:34.474Z,17.30
2018-10-21T08:54:03.653Z,17.20
2018-10-21T08:56:33.259Z,17.30
2018-10-21T08:59:02.661Z,17.10
2018-10-21T09:01:31.937Z,16.90
2018-10-21T09:04:01.001Z,16.90
2018-10-21T09:06:30.019Z,17.30
2018-10-21T09:08:59.177Z,17.80
2018-10-21T09:11:34.513Z,17.10
2018-10-21T09:14:03.859Z,17.40
2018-10-21T09:16:33.199Z,17.50
2018-10-21T09:19:02.590Z,18.10
2018-10-21T09:21:31.575Z,18.50
2018-10-21T09:24:00.734Z,18.70
2018-10-21T09:26:29.784Z,18.90
2018-10-21T09:28:59.055Z,19.00
2018-10-21T09:31:28.331Z,19.40
2018-10-21T09:33:57.247Z,18.80
2018-10-21T09:36:26.412Z,19.60
2018-10-21T09:38:55.453Z,19.20
2018-10-21T09:41:24.612Z,19.20
2018-10-21T09:43:53.771Z,19.10
2018-10-21T09:46:23.171Z,19.10
2018-10-21T09:48:52.331Z,19.20
2018-10-21T09:51:21.410Z,18.90
2018-10-21T09:53:50.292Z,19.30
2018-10-21T09:56:19.330Z,18.90
2018-10-21T09:58:48.721Z,18.70
2018-10-21T10:01:38.885Z,19.00
2018-10-21T10:04:08.463Z,19.00
2018-10-21T10:06:37.992Z,18.90
2018-10-21T10:09:09.604Z,18.60
2018-10-21T10:11:38.763Z,19.20
2018-10-21T10:14:07.804Z,19.40
2018-10-21T10:16:37.084Z,19.70
2018-10-21T10:19:06.683Z,19.80
2018-10-21T10:21:36.346Z,19.80
2018-10-21T10:24:05.529Z,20.40
2018-10-21T10:26:34.560Z,19.80
2018-10-21T10:29:10.901Z,19.60
2018-10-21T10:31:40.683Z,20.70
2018-10-21T10:34:09.754Z,21.00
2018-10-21T10:36:39.767Z,20.70
2018-10-21T10:39:10.437Z,20.90
2018-10-21T10:41:40.599Z,20.60
2018-10-21T10:44:10.017Z,20.10
2018-10-21T10:46:39.242Z,19.40
2018-10-21T10:49:13.763Z,19.80
2018-10-21T10:51:43.786Z,19.90
2018-10-21T10:54:18.235Z,20.00
2018-10-21T10:56:47.516Z,20.20
2018-10-21T10:59:16.554Z,20.00
2018-10-21T11:01:45.597Z,20.60
2018-10-21T11:04:14.728Z,20.00
2018-10-21T11:06:43.674Z,20.50
2018-10-21T11:09:13.128Z,20.90
2018-10-21T11:11:42.353Z,20.20
2018-10-21T11:14:11.392Z,20.10
2018-10-21T11:16:40.550Z,21.30
2018-10-21T11:19:09.886Z,21.80
2018-10-21T11:21:55.127Z,22.00
2018-10-21T11:24:31.006Z,21.60
2018-10-21T11:27:00.113Z,22.20
2018-10-21T11:29:36.772Z,21.20
2018-10-21T11:32:05.753Z,21.20
2018-10-21T11:34:40.123Z,20.70
2018-10-21T11:37:09.604Z,21.70
2018-10-21T11:39:38.866Z,21.10
2018-10-21T11:42:08.266Z,22.00
2018-10-21T11:44:37.582Z,21.20
2018-10-21T11:47:09.824Z,21.00
2018-10-21T11:49:38.743Z,21.20
2018-10-21T11:52:07.969Z,21.10
2018-10-21T11:54:37.181Z,21.10
2018-10-21T11:57:06.829Z,21.00
2018-10-21T11:59:36.110Z,21.10
2018-10-21T12:02:05.380Z,20.20
2018-10-21T12:04:34.540Z,20.60
2018-10-21T12:07:03.738Z,21.30
2018-10-21T12:09:46.341Z,22.10
2018-10-21T12:12:15.458Z,22.00
2018-10-21T12:14:50.165Z,21.60
2018-10-21T12:17:19.175Z,22.20
2018-10-21T12:19:48.494Z,22.30
2018-10-21T12:22:18.192Z,22.80
2018-10-21T12:24:47.255Z,24.00
2018-10-21T12:27:16.431Z,24.90
2018-10-21T12:29:45.574Z,24.80
2018-10-21T12:32:14.639Z,24.80
2018-10-21T12:34:43.781Z,24.80
2018-10-21T12:37:12.997Z,24.00
2018-10-21T12:39:42.216Z,22.90
2018-10-21T12:42:11.299Z,22.30
2018-10-21T12:44:40.294Z,22.40
2018-10-21T12:47:09.639Z,21.70
2018-10-21T12:49:38.733Z,22.40
2018-10-21T12:52:07.924Z,22.50
2018-10-21T12:54:37.138Z,21.90
2018-10-21T12:57:06.572Z,21.30
2018-10-21T12:59:35.607Z,21.60
2018-10-21T13:02:04.942Z,21.70
2018-10-21T13:04:34.196Z,21.40
2018-10-21T13:07:03.146Z,21.40
2018-10-21T13:09:32.008Z,21.60
2018-10-21T13:12:01.048Z,20.90
2018-10-21T13:14:30.367Z,20.90
2018-10-21T13:16:59.561Z,20.60
2018-10-21T13:19:28.884Z,19.90
2018-10-21T13:21:57.975Z,19.60
2018-10-21T13:24:27.322Z,19.60
2018-10-21T13:26:56.721Z,19.30
2018-10-21T13:29:26.364Z,18.90
2018-10-21T13:31:55.965Z,18.60
2018-10-21T13:34:25.447Z,18.30
2018-10-21T13:36:54.983Z,18.30
2018-10-21T13:39:23.962Z,18.40
2018-10-21T13:41:53.622Z,18.40
2018-10-21T13:44:23.003Z,18.10
2018-10-21T13:46:52.041Z,18.00
2018-10-21T13:49:21.439Z,17.80
2018-10-21T13:51:50.890Z,17.80
2018-10-21T13:54:19.757Z,17.50
2018-10-21T13:56:48.916Z,17.40
2018-10-21T13:59:18.157Z,17.50
2018-10-21T14:01:47.619Z,17.30
2018-10-21T14:04:17.308Z,17.30
2018-10-21T14:06:46.444Z,17.20
2018-10-21T14:09:16.184Z,17.10
2018-10-21T14:11:45.437Z,17.10
2018-10-21T14:14:14.887Z,16.80
2018-10-21T14:16:44.506Z,17.10
2018-10-21T14:19:14.163Z,17.00
2018-10-21T14:21:43.697Z,17.30
2018-10-21T14:24:13.266Z,17.30
2018-10-21T14:26:42.388Z,17.20
2018-10-21T14:29:11.703Z,17.40
2018-10-21T14:31:40.921Z,17.40
2018-10-21T14:34:10.818Z,17.20
2018-10-21T14:36:40.609Z,17.20
2018-10-21T14:39:12.174Z,17.40
2018-10-21T14:41:47.909Z,17.30
2018-10-21T14:44:17.343Z,17.50
2018-10-21T14:46:46.744Z,17.40
2018-10-21T14:49:16.395Z,17.30
2018-10-21T14:51:46.143Z,17.40
2018-10-21T14:54:15.531Z,17.30
2018-10-21T14:56:45.325Z,17.20
2018-10-21T14:59:15.273Z,17.20
2018-10-21T15:01:45.189Z,17.40
2018-10-21T15:04:14.650Z,17.50
2018-10-21T15:06:44.228Z,17.40
2018-10-21T15:09:14.195Z,17.50
2018-10-21T15:11:44.216Z,17.60
2018-10-21T15:14:14.107Z,17.60
2018-10-21T15:16:43.401Z,17.60
2018-10-21T15:19:13.050Z,17.40
2018-10-21T15:21:42.854Z,17.60
2018-10-21T15:24:12.295Z,17.20
2018-10-21T15:26:41.998Z,17.20
2018-10-21T15:29:11.248Z,17.30
2018-10-21T15:31:40.393Z,17.10
2018-10-21T15:34:09.825Z,17.00
2018-10-21T15:36:39.588Z,16.60
2018-10-21T15:39:10.735Z,16.80
2018-10-21T15:41:40.433Z,16.90
2018-10-21T15:44:10.024Z,17.10
2018-10-21T15:46:39.779Z,17.00
2018-10-21T15:49:09.239Z,17.00
2018-10-21T15:51:39.096Z,16.80
2018-10-21T15:54:08.741Z,16.60
2018-10-21T15:56:46.019Z,16.60
2018-10-21T15:59:15.529Z,16.60
2018-10-21T16:01:44.336Z,16.30
2018-10-21T16:04:14.058Z,16.20
2018-10-21T16:06:50.395Z,16.10
2018-10-21T16:09:20.021Z,16.10
2018-10-21T16:11:49.629Z,16.00
2018-10-21T16:14:19.026Z,16.20
2018-10-21T16:16:48.288Z,16.10
2018-10-21T16:19:17.446Z,15.90
2018-10-21T16:21:46.963Z,15.70
2018-10-21T16:24:16.324Z,15.60
2018-10-21T16:26:45.522Z,15.50
2018-10-21T16:29:14.804Z,15.60
2018-10-21T16:31:44.255Z,15.50
2018-10-21T16:34:13.368Z,15.70
2018-10-21T16:36:42.790Z,15.70
2018-10-21T16:39:12.686Z,15.50
2018-10-21T16:41:42.104Z,15.50
2018-10-21T16:44:11.496Z,15.40
2018-10-21T16:46:43.776Z,15.40
2018-10-21T16:49:13.369Z,15.20
2018-10-21T16:51:43.126Z,15.00
2018-10-21T16:54:12.786Z,14.70
2018-10-21T16:56:42.162Z,14.50
2018-10-21T16:59:11.472Z,14.10
2018-10-21T17:01:40.837Z,13.90
2018-10-21T17:04:10.241Z,13.70
2018-10-21T17:06:39.273Z,13.60
2018-10-21T17:09:11.975Z,13.60
2018-10-21T17:11:41.192Z,13.50
2018-10-21T17:14:10.490Z,13.60
2018-10-21T17:16:39.875Z,13.60
2018-10-21T17:19:09.445Z,13.50
2018-10-21T17:21:38.548Z,13.50
2018-10-21T17:24:08.239Z,13.30
2018-10-21T17:26:37.288Z,13.10
2018-10-21T17:29:06.771Z,13.40
2018-10-21T17:31:36.037Z,13.30
2018-10-21T17:34:05.964Z,12.50
2018-10-21T17:36:36.009Z,12.30
2018-10-21T17:39:08.221Z,12.10
2018-10-21T17:41:38.066Z,12.10
2018-10-21T17:44:07.244Z,12.10
2018-10-21T17:46:37.286Z,12.00
2018-10-21T17:49:06.913Z,11.70
2018-10-21T17:51:36.635Z,11.80
2018-10-21T17:54:06.114Z,11.50
2018-10-21T17:56:40.233Z,11.10
2018-10-21T17:59:09.504Z,10.80
2018-10-21T18:01:38.922Z,10.70
2018-10-21T18:04:08.068Z,10.60
2018-10-21T18:06:40.642Z,10.80
2018-10-21T18:09:11.899Z,11.00
2018-10-21T18:11:41.361Z,11.00
2018-10-21T18:14:10.588Z,11.10
2018-10-21T18:16:40.354Z,10.70
2018-10-21T18:19:09.636Z,10.70
2018-10-21T18:21:39.366Z,10.50
2018-10-21T18:24:08.563Z,10.50
2018-10-21T18:26:38.302Z,10.60
2018-10-21T18:29:07.695Z,10.80
2018-10-21T18:31:36.863Z,11.20
2018-10-21T18:34:06.298Z,11.50
2018-10-21T18:36:35.786Z,11.60
2018-10-21T18:39:06.977Z,11.80
2018-10-21T18:41:36.760Z,11.50
2018-10-21T18:44:06.498Z,10.80
2018-10-21T18:46:36.260Z,10.70
2018-10-21T18:49:05.423Z,10.40
2018-10-21T18:51:34.573Z,10.10
2018-10-21T18:54:04.093Z,10.10
2018-10-21T18:56:33.548Z,10.00
2018-10-21T18:59:02.935Z,9.80
2018-10-21T19:01:32.301Z,9.70
2018-10-21T19:04:01.718Z,9.80
2018-10-21T19:06:31.109Z,10.10
2018-10-21T19:09:00.489Z,10.40
2018-10-21T19:11:30.254Z,10.30
2018-10-21T19:13:59.538Z,10.30
2018-10-21T19:16:28.815Z,9.80
2018-10-21T19:18:58.382Z,9.40
2018-10-21T19:21:27.484Z,9.30
2018-10-21T19:23:57.017Z,9.30
2018-10-21T19:26:26.649Z,9.30
2018-10-21T19:28:56.166Z,9.40
2018-10-21T19:31:25.572Z,9.60
2018-10-21T19:33:55.105Z,9.60
2018-10-21T19:36:24.641Z,9.40
2018-10-21T19:38:54.251Z,9.50
2018-10-21T19:41:24.001Z,9.30
2018-10-21T19:43:53.400Z,9.30
2018-10-21T19:46:23.293Z,9.30
2018-10-21T19:48:59.314Z,9.40
2018-10-21T19:51:28.442Z,9.20
2018-10-21T19:53:58.688Z,9.30
2018-10-21T19:56:30.710Z,9.40
2018-10-21T19:59:00.477Z,9.50
2018-10-21T20:01:35.034Z,9.40
2018-10-21T20:04:05.049Z,9.70
2018-10-21T20:06:34.973Z,9.70
2018-10-21T20:09:05.533Z,9.70
2018-10-21T20:11:35.025Z,9.50
2018-10-21T20:14:04.919Z,9.60
2018-10-21T20:16:34.804Z,9.80
2018-10-21T20:19:04.013Z,9.70
2018-10-21T20:21:33.238Z,9.20
2018-10-21T20:24:03.352Z,9.00
2018-10-21T20:26:32.812Z,8.50
2018-10-21T20:29:02.809Z,8.70
2018-10-21T20:31:32.782Z,9.00
2018-10-21T20:34:02.634Z,9.00
2018-10-21T20:36:32.687Z,9.00
2018-10-21T20:39:05.962Z,8.50
2018-10-21T20:41:35.670Z,7.90
2018-10-21T20:44:05.995Z,8.10
2018-10-21T20:46:35.297Z,8.40
2018-10-21T20:49:05.150Z,8.80
2018-10-21T20:51:34.954Z,8.90
2018-10-21T20:54:05.103Z,8.50
2018-10-21T20:56:34.938Z,8.20
2018-10-21T20:59:05.385Z,8.30
2018-10-21T21:01:35.635Z,8.30
2018-10-21T21:04:05.274Z,8.30
2018-10-21T21:06:34.926Z,8.40
2018-10-21T21:09:05.562Z,8.20
2018-10-21T21:11:35.442Z,8.30
2018-10-21T21:14:05.802Z,8.50
2018-10-21T21:16:35.882Z,8.20
2018-10-21T21:19:06.016Z,8.10
2018-10-21T21:21:36.062Z,8.50
2018-10-21T21:24:06.241Z,8.60
2018-10-21T21:26:36.324Z,8.60
2018-10-21T21:29:06.219Z,8.60
2018-10-21T21:31:35.756Z,8.70
2018-10-21T21:34:06.693Z,8.60
2018-10-21T21:36:36.577Z,8.30
2018-10-21T21:39:10.587Z,8.10
2018-10-21T21:41:41.014Z,8.40
2018-10-21T21:44:10.922Z,8.70
2018-10-21T21:46:41.610Z,8.80
2018-10-21T21:49:11.852Z,8.60
2018-10-21T21:51:41.896Z,8.50
2018-10-21T21:54:13.688Z,8.90
2018-10-21T21:56:45.085Z,9.20
2018-10-21T21:59:14.994Z,9.20
2018-10-21T22:01:44.609Z,9.10
2018-10-21T22:04:14.415Z,9.10
2018-10-21T22:06:44.264Z,9.10
2018-10-21T22:09:14.487Z,9.10
2018-10-21T22:11:44.072Z,8.90
2018-10-21T22:14:13.812Z,8.90
2018-10-21T22:16:43.726Z,9.10
2018-10-21T22:19:13.413Z,9.00
2018-10-21T22:21:43.422Z,8.90
2018-10-21T22:24:13.251Z,8.60
2018-10-21T22:26:42.567Z,8.30
2018-10-21T22:29:12.288Z,8.20
2018-10-21T22:31:41.654Z,8.40
2018-10-21T22:34:11.218Z,8.70
2018-10-21T22:36:40.660Z,8.90
2018-10-21T22:39:10.062Z,8.90
2018-10-21T22:41:39.464Z,9.00
2018-10-21T22:44:09.093Z,9.10
2018-10-21T22:46:38.482Z,9.10
2018-10-21T22:49:07.773Z,9.20
2018-10-21T22:51:36.938Z,9.30
2018-10-21T22:54:06.518Z,9.30
2018-10-21T22:56:35.914Z,9.60
2018-10-21T22:59:05.257Z,9.70
2018-10-21T23:01:34.939Z,9.80
2018-10-21T23:04:04.864Z,9.70
2018-10-21T23:06:34.174Z,9.60
2018-10-21T23:09:03.697Z,9.80
2018-10-21T23:11:33.126Z,9.70
2018-10-21T23:14:02.609Z,9.70
2018-10-21T23:16:32.063Z,9.70
2018-10-21T23:19:12.622Z,9.40
2018-10-21T23:21:42.260Z,9.50
2018-10-21T23:24:12.230Z,9.70
2018-10-21T23:26:42.353Z,9.60
2018-10-21T23:29:12.488Z,9.80
2018-10-21T23:31:42.228Z,9.90
2018-10-21T23:34:12.039Z,9.90
2018-10-21T23:36:41.620Z,9.70
2018-10-21T23:39:11.535Z,9.80
2018-10-21T23:41:41.173Z,10.00
2018-10-21T23:44:10.782Z,10.10
2018-10-21T23:46:40.395Z,9.80
2018-10-21T23:49:10.150Z,9.60
2018-10-21T23:51:39.872Z,9.50
2018-10-21T23:54:09.740Z,9.50
2018-10-21T23:56:40.298Z,9.50
2018-10-21T23:59:11.186Z,9.40
